Time;durP1;ratioP1;P1;durP2;ratioP2;P2;SDS_P1;SDS_P2;PMS_P1;PMS_P2;Temp;Humidity;BMP_temperature;BMP_pressure;BME280_temperature;BME280_humidity;BME280_pressure;Samples;Min_cycle;Max_cycle;Signal;HPM_P1;HPM_P2
2021/12/09 00:01:01;;;;;;;14.18;1.98;;;7.10;92.30;;;;;;5064838;28;20029;-71
2021/12/09 00:03:28;;;;;;;12.60;2.20;;;7.10;92.40;;;;;;5065460;28;20021;-72
2021/12/09 00:05:56;;;;;;;11.80;2.20;;;7.10;92.40;;;;;;5065565;28;20287;-72
2021/12/09 00:08:24;;;;;;;24.92;4.70;;;7.10;92.40;;;;;;5066705;28;20017;-73
2021/12/09 00:10:50;;;;;;;13.95;2.53;;;7.10;92.30;;;;;;5066148;28;20319;-74
2021/12/09 00:13:16;;;;;;;15.80;2.05;;;7.10;92.30;;;;;;5067425;28;20028;-73
2021/12/09 00:15:42;;;;;;;11.82;2.22;;;7.10;92.20;;;;;;5066329;28;20290;-72
2021/12/09 00:18:08;;;;;;;15.45;2.95;;;7.10;92.30;;;;;;5067365;28;20025;-72
2021/12/09 00:20:33;;;;;;;18.95;3.30;;;7.10;92.30;;;;;;5064266;28;20037;-72
2021/12/09 00:22:59;;;;;;;16.63;3.55;;;7.10;92.30;;;;;;5065885;28;20052;-73
2021/12/09 00:25:25;;;;;;;14.60;3.65;;;7.10;92.30;;;;;;5065106;28;20040;-71
2021/12/09 00:27:52;;;;;;;11.27;2.15;;;7.10;92.30;;;;;;5065427;28;20062;-74
2021/12/09 00:30:19;;;;;;;15.48;2.72;;;7.20;92.40;;;;;;5064198;28;20330;-74
2021/12/09 00:32:46;;;;;;;17.08;2.10;;;7.10;92.50;;;;;;5064860;28;20043;-74
2021/12/09 00:35:16;;;;;;;13.68;2.40;;;7.10;92.50;;;;;;5064643;28;20024;-73
2021/12/09 00:37:53;;;;;;;8.45;1.48;;;7.10;92.50;;;;;;5048416;28;20041;-73
2021/12/09 00:40:19;;;;;;;12.07;1.65;;;7.10;92.60;;;;;;5065359;28;20037;-72
2021/12/09 00:42:45;;;;;;;20.05;2.28;;;7.10;92.60;;;;;;5065515;28;20032;-72
2021/12/09 00:45:11;;;;;;;17.92;1.92;;;7.10;92.60;;;;;;5064516;28;20021;-74
2021/12/09 00:47:37;;;;;;;9.90;1.60;;;7.10;92.60;;;;;;5065667;28;20017;-74
2021/12/09 00:50:04;;;;;;;7.78;1.50;;;7.10;92.60;;;;;;5064452;28;20051;-73
2021/12/09 00:52:29;;;;;;;12.18;1.75;;;7.10;92.70;;;;;;5064004;28;20168;-74
2021/12/09 00:54:57;;;;;;;17.15;1.83;;;7.10;92.70;;;;;;5064593;28;20262;-71
2021/12/09 00:57:24;;;;;;;12.77;2.22;;;7.10;92.70;;;;;;5064237;28;20286;-72
2021/12/09 00:59:49;;;;;;;10.25;1.92;;;7.20;92.60;;;;;;5064037;28;20033;-73
2021/12/09 01:02:15;;;;;;;12.90;1.70;;;7.10;92.60;;;;;;5064282;28;20027;-73
2021/12/09 01:04:43;;;;;;;12.05;1.55;;;7.20;92.60;;;;;;5065012;28;20304;-73
2021/12/09 01:07:09;;;;;;;12.25;2.20;;;7.20;92.60;;;;;;5065034;28;20304;-74
2021/12/09 01:09:35;;;;;;;17.38;1.75;;;7.20;92.50;;;;;;5064925;28;20021;-72
2021/12/09 01:12:00;;;;;;;17.90;1.85;;;7.20;92.50;;;;;;5047511;28;20227;-71
2021/12/09 01:14:26;;;;;;;22.80;2.35;;;7.20;92.40;;;;;;5065112;28;20021;-74
2021/12/09 01:16:52;;;;;;;17.40;1.90;;;7.20;92.40;;;;;;5065155;28;20095;-73
2021/12/09 01:19:18;;;;;;;12.93;1.83;;;7.20;92.60;;;;;;5063652;28;20079;-75
2021/12/09 01:21:44;;;;;;;11.98;1.95;;;7.20;92.80;;;;;;5028365;28;20095;-75
2021/12/09 01:24:10;;;;;;;11.10;2.22;;;7.20;92.80;;;;;;5064046;28;20031;-73
2021/12/09 01:26:36;;;;;;;9.40;1.52;;;7.10;92.90;;;;;;5064904;28;20028;-72
2021/12/09 01:29:10;;;;;;;13.70;2.10;;;7.20;93.10;;;;;;5063755;28;20025;-71
2021/12/09 01:31:38;;;;;;;14.27;1.23;;;7.20;93.00;;;;;;5064651;28;20025;-74
2021/12/09 01:34:05;;;;;;;16.50;2.78;;;7.10;92.90;;;;;;5063509;28;20048;-74
2021/12/09 01:36:32;;;;;;;10.57;1.90;;;7.20;93.10;;;;;;5047069;28;20063;-75
2021/12/09 01:38:59;;;;;;;15.88;2.13;;;7.20;93.10;;;;;;5047294;28;20033;-72
2021/12/09 01:41:25;;;;;;;5.78;1.35;;;7.20;93.10;;;;;;5063489;28;20059;-71
2021/12/09 01:43:51;;;;;;;23.30;2.47;;;7.20;93.10;;;;;;5064771;28;20037;-74
2021/12/09 01:46:20;;;;;;;16.80;2.15;;;7.20;93.10;;;;;;5046832;28;20059;-71
2021/12/09 01:48:47;;;;;;;12.25;1.77;;;7.10;93.30;;;;;;5063219;28;20045;-73
2021/12/09 01:51:14;;;;;;;14.43;2.50;;;7.10;93.40;;;;;;5064106;28;20021;-72
2021/12/09 01:53:41;;;;;;;15.93;2.28;;;7.10;93.40;;;;;;5062557;28;20047;-71
2021/12/09 01:56:11;;;;;;;13.00;2.08;;;7.10;93.50;;;;;;5063485;28;20314;-76
2021/12/09 01:58:37;;;;;;;19.65;2.33;;;7.10;93.40;;;;;;5062722;28;20348;-75
2021/12/09 02:01:05;;;;;;;10.45;1.70;;;7.10;93.40;;;;;;5064259;28;20029;-74
2021/12/09 02:03:31;;;;;;;12.57;1.42;;;7.10;93.50;;;;;;5064258;28;20044;-73
2021/12/09 02:05:57;;;;;;;11.80;1.95;;;7.10;93.60;;;;;;5063045;28;20311;-73
2021/12/09 02:08:23;;;;;;;12.70;1.67;;;7.00;93.60;;;;;;5064195;28;20024;-73
2021/12/09 02:10:50;;;;;;;7.45;1.20;;;7.10;93.50;;;;;;5062784;28;20040;-73
2021/12/09 02:13:16;;;;;;;15.57;2.05;;;7.10;93.60;;;;;;5064098;28;20025;-71
2021/12/09 02:15:42;;;;;;;14.25;1.70;;;7.10;93.70;;;;;;5064072;28;20012;-72
2021/12/09 02:18:12;;;;;;;8.88;1.63;;;7.10;93.60;;;;;;5064091;28;20032;-73
2021/12/09 02:20:39;;;;;;;13.10;2.42;;;7.10;93.50;;;;;;5062393;28;20092;-73
2021/12/09 02:23:10;;;;;;;13.57;1.80;;;7.10;93.50;;;;;;5062648;28;20052;-74
2021/12/09 02:25:38;;;;;;;9.80;1.60;;;7.10;93.60;;;;;;5063956;28;20065;-75
2021/12/09 02:28:04;;;;;;;10.98;1.70;;;7.10;93.70;;;;;;5062973;28;20021;-74
2021/12/09 02:30:30;;;;;;;18.60;1.80;;;7.00;93.70;;;;;;5063334;28;20025;-71
2021/12/09 02:32:56;;;;;;;8.55;1.27;;;7.00;93.70;;;;;;5063366;28;20025;-72
2021/12/09 02:35:22;;;;;;;11.27;1.13;;;7.00;93.80;;;;;;5063641;28;20223;-73
2021/12/09 02:37:49;;;;;;;17.58;1.80;;;7.00;93.90;;;;;;5063658;28;20036;-73
2021/12/09 02:40:16;;;;;;;9.02;1.10;;;7.00;93.90;;;;;;5062330;28;20024;-72
2021/12/09 02:42:42;;;;;;;12.75;1.70;;;7.00;94.00;;;;;;5062607;28;20114;-74
2021/12/09 02:45:10;;;;;;;12.60;2.03;;;7.00;94.00;;;;;;5062315;28;20029;-72
2021/12/09 02:47:36;;;;;;;15.00;2.28;;;6.90;94.10;;;;;;5045959;28;20027;-74
2021/12/09 02:50:03;;;;;;;13.70;1.92;;;6.90;94.10;;;;;;5062121;28;20048;-73
2021/12/09 02:52:29;;;;;;;11.25;1.40;;;6.90;94.10;;;;;;5063029;28;20040;-74
2021/12/09 02:54:57;;;;;;;13.43;2.35;;;6.90;94.10;;;;;;5063599;28;20028;-73
2021/12/09 02:57:23;;;;;;;15.90;1.80;;;6.90;94.00;;;;;;5063400;28;20071;-73
2021/12/09 02:59:49;;;;;;;10.57;1.52;;;6.90;94.00;;;;;;5062888;28;20032;-74
2021/12/09 03:02:14;;;;;;;14.30;2.20;;;6.90;94.10;;;;;;5045806;28;20021;-73
2021/12/09 03:04:58;;;;;;;12.82;1.75;;;6.90;94.00;;;;;;5063259;28;20021;-74
2021/12/09 03:07:32;;;;;;;9.88;1.60;;;6.90;94.10;;;;;;5062387;28;20033;-73
2021/12/09 03:10:01;;;;;;;12.95;1.88;;;6.90;94.10;;;;;;5061951;28;20032;-71
2021/12/09 03:12:31;;;;;;;12.70;1.73;;;6.90;94.10;;;;;;5063165;28;20135;-73
2021/12/09 03:14:56;;;;;;;8.75;1.40;;;6.90;94.20;;;;;;5062356;28;20025;-72
2021/12/09 03:17:22;;;;;;;13.13;1.75;;;6.80;94.20;;;;;;5063109;28;20028;-73
2021/12/09 03:19:48;;;;;;;19.23;2.83;;;6.80;94.30;;;;;;5061813;28;20028;-73
2021/12/09 03:22:14;;;;;;;12.90;1.45;;;6.80;94.30;;;;;;5027120;28;20036;-73
2021/12/09 03:24:40;;;;;;;14.93;2.00;;;6.80;94.40;;;;;;5062252;28;20273;-71
2021/12/09 03:27:07;;;;;;;11.43;1.92;;;6.80;94.30;;;;;;5061924;28;20052;-72
2021/12/09 03:29:33;;;;;;;16.95;1.90;;;6.80;94.40;;;;;;5061815;28;20044;-73
2021/12/09 03:32:02;;;;;;;19.42;2.42;;;6.80;94.50;;;;;;5045536;28;20060;-71
2021/12/09 03:34:30;;;;;;;10.70;1.73;;;6.70;94.50;;;;;;5061796;28;20048;-73
2021/12/09 03:36:58;;;;;;;15.55;2.15;;;6.70;94.40;;;;;;5045192;28;20061;-72
2021/12/09 03:39:30;;;;;;;14.77;1.55;;;6.70;94.50;;;;;;5061670;28;20167;-73
2021/12/09 03:41:56;;;;;;;;;;;6.60;94.50;;;;;;5062523;28;20082;-74
2021/12/09 03:44:23;;;;;;;20.83;2.30;;;6.60;94.50;;;;;;5062864;28;19901;-71
2021/12/09 03:46:52;;;;;;;13.10;1.80;;;6.70;94.60;;;;;;5061924;28;20033;-73
2021/12/09 03:49:19;;;;;;;11.45;1.63;;;6.60;94.50;;;;;;5061560;28;20029;-72
2021/12/09 03:51:44;;;;;;;13.32;1.98;;;6.60;94.60;;;;;;5062388;28;20092;-71
2021/12/09 03:54:11;;;;;;;12.73;1.80;;;6.60;94.60;;;;;;5063129;28;20185;-72
2021/12/09 03:56:38;;;;;;;18.13;2.03;;;6.60;94.60;;;;;;5061604;28;20033;-71
2021/12/09 03:59:06;;;;;;;13.13;2.00;;;6.60;94.70;;;;;;5044696;28;20028;-72
2021/12/09 04:01:33;;;;;;;11.27;2.03;;;6.50;95.00;;;;;;5061800;28;20017;-72
2021/12/09 04:03:59;;;;;;;13.00;2.10;;;6.60;94.80;;;;;;5061466;28;20025;-71
2021/12/09 04:06:25;;;;;;;18.17;1.95;;;6.50;94.80;;;;;;5062849;28;20354;-71
2021/12/09 04:08:51;;;;;;;15.88;1.98;;;6.50;94.80;;;;;;5061555;28;20029;-71
2021/12/09 04:11:18;;;;;;;18.35;2.50;;;6.50;94.70;;;;;;5062364;28;20100;-74
2021/12/09 04:13:43;;;;;;;11.90;1.45;;;6.50;94.80;;;;;;5045025;28;20025;-74
2021/12/09 04:16:10;;;;;;;12.82;2.28;;;6.50;94.80;;;;;;5062950;28;20249;-72
2021/12/09 04:18:37;;;;;;;12.43;1.55;;;6.50;94.90;;;;;;5066079;28;20024;-73
2021/12/09 04:21:04;;;;;;;13.07;1.88;;;6.50;95.00;;;;;;5066020;28;20080;-74
2021/12/09 04:23:30;;;;;;;9.25;1.73;;;6.40;95.10;;;;;;5064383;28;20100;-75
2021/12/09 04:25:57;;;;;;;14.73;2.10;;;6.40;95.20;;;;;;5065276;28;20028;-73
2021/12/09 04:28:22;;;;;;;18.30;2.30;;;6.40;95.20;;;;;;5065838;28;20315;-72
2021/12/09 04:30:48;;;;;;;12.27;2.50;;;6.40;95.30;;;;;;5064452;28;20055;-75
2021/12/09 04:33:14;;;;;;;17.00;1.70;;;6.40;95.40;;;;;;5065950;28;20196;-72
2021/12/09 04:35:40;;;;;;;18.60;1.88;;;6.40;95.40;;;;;;5065752;28;20060;-74
2021/12/09 04:38:06;;;;;;;11.02;1.60;;;6.40;95.50;;;;;;5066080;28;20028;-72
2021/12/09 04:40:32;;;;;;;11.90;1.75;;;6.30;95.50;;;;;;5064221;28;20033;-74
2021/12/09 04:42:57;;;;;;;19.40;2.20;;;6.30;95.60;;;;;;5065090;28;20025;-72
2021/12/09 04:45:23;;;;;;;12.55;1.65;;;6.30;95.50;;;;;;5065437;28;20036;-73
2021/12/09 04:47:49;;;;;;;11.57;1.85;;;6.30;95.50;;;;;;5064735;28;20040;-73
2021/12/09 04:50:14;;;;;;;11.45;1.60;;;6.40;95.50;;;;;;5065340;28;20070;-72
2021/12/09 04:52:40;;;;;;;12.52;2.28;;;6.30;95.50;;;;;;5065615;28;20215;-75
2021/12/09 04:55:08;;;;;;;18.35;1.80;;;6.20;95.70;;;;;;5065516;28;20029;-72
2021/12/09 04:57:34;;;;;;;11.02;1.73;;;6.20;95.80;;;;;;5048153;28;20052;-71
2021/12/09 05:00:01;;;;;;;17.30;2.13;;;6.10;95.90;;;;;;5065144;28;20040;-73
2021/12/09 05:02:39;;;;;;;20.65;2.38;;;6.10;96.00;;;;;;5064369;28;20020;-71
2021/12/09 05:05:05;;;;;;;17.00;2.15;;;6.00;96.10;;;;;;5065622;28;20087;-74
2021/12/09 05:07:30;;;;;;;14.50;1.77;;;6.00;96.20;;;;;;5064298;28;20185;-72
2021/12/09 05:09:56;;;;;;;16.55;2.95;;;5.90;96.40;;;;;;5063801;28;20029;-72
2021/12/09 05:12:22;;;;;;;19.30;1.80;;;5.90;96.40;;;;;;5065292;28;20092;-72
2021/12/09 05:14:48;;;;;;;17.20;2.00;;;5.90;96.40;;;;;;5064210;28;20312;-74
2021/12/09 05:17:16;;;;;;;14.27;1.80;;;6.00;96.50;;;;;;5047573;28;20299;-74
2021/12/09 05:19:42;;;;;;;11.35;1.55;;;6.00;96.60;;;;;;5063532;28;20017;-72
2021/12/09 05:22:08;;;;;;;16.67;2.15;;;6.00;96.60;;;;;;5064823;28;20070;-72
2021/12/09 05:24:35;;;;;;;13.40;2.45;;;6.00;96.60;;;;;;5062639;28;20057;-74
2021/12/09 05:27:02;;;;;;;12.63;1.40;;;6.00;96.50;;;;;;5065208;28;20021;-72
2021/12/09 05:29:32;;;;;;;15.07;1.90;;;6.00;96.50;;;;;;5062481;28;20303;-72
2021/12/09 05:32:16;;;;;;;12.13;1.60;;;6.00;96.50;;;;;;5063659;28;20037;-72
2021/12/09 05:34:49;;;;;;;13.50;1.98;;;6.00;96.90;;;;;;5063900;28;20025;-71
2021/12/09 05:37:21;;;;;;;11.50;1.80;;;6.00;96.60;;;;;;5064869;28;20033;-74
2021/12/09 05:39:48;;;;;;;12.07;1.65;;;6.00;96.70;;;;;;5047117;28;20271;-71
2021/12/09 05:42:16;;;;;;;10.52;1.48;;;6.00;96.70;;;;;;5046938;28;20040;-72
2021/12/09 05:44:42;;;;;;;9.20;1.52;;;6.00;96.60;;;;;;5063512;28;20223;-74
2021/12/09 05:47:08;;;;;;;11.20;1.40;;;6.10;96.50;;;;;;5046690;28;20020;-73
2021/12/09 05:49:36;;;;;;;11.80;1.88;;;6.10;96.60;;;;;;5063171;28;20036;-72
2021/12/09 05:52:04;;;;;;;8.32;1.45;;;6.20;96.50;;;;;;5062860;28;20036;-71
2021/12/09 05:54:29;;;;;;;22.58;2.10;;;6.20;96.50;;;;;;5064686;28;20048;-73
2021/12/09 05:56:55;;;;;;;9.70;1.55;;;6.20;96.40;;;;;;5063075;28;20090;-72
2021/12/09 05:59:21;;;;;;;12.60;1.90;;;6.20;96.50;;;;;;5063972;28;20025;-73
2021/12/09 06:01:46;;;;;;;16.80;1.73;;;6.10;96.60;;;;;;5064141;28;20033;-70
2021/12/09 06:04:13;;;;;;;12.00;1.50;;;6.10;96.70;;;;;;5063249;28;20310;-72
2021/12/09 06:06:39;;;;;;;8.32;1.55;;;6.00;96.90;;;;;;5064229;28;20020;-71
2021/12/09 06:09:07;;;;;;;18.02;2.30;;;6.00;97.00;;;;;;5062945;28;20064;-74
2021/12/09 06:11:34;;;;;;;13.82;1.88;;;6.00;97.10;;;;;;5062679;28;20024;-71
2021/12/09 06:14:00;;;;;;;13.88;1.65;;;6.00;97.20;;;;;;5064070;28;20033;-72
2021/12/09 06:16:26;;;;;;;18.20;2.20;;;5.90;97.20;;;;;;5046252;28;20290;-70
2021/12/09 06:18:52;;;;;;;19.48;1.70;;;5.90;97.30;;;;;;5062587;28;20032;-71
2021/12/09 06:21:19;;;;;;;17.77;2.05;;;5.90;97.40;;;;;;5062382;28;20033;-72
2021/12/09 06:23:46;;;;;;;9.65;1.45;;;5.90;97.30;;;;;;5062562;28;20339;-72
2021/12/09 06:26:11;;;;;;;13.20;1.92;;;6.00;97.40;;;;;;5062306;28;20319;-72
2021/12/09 06:28:38;;;;;;;10.15;1.67;;;5.90;97.40;;;;;;5063755;28;20032;-72
2021/12/09 06:31:05;;;;;;;11.90;1.88;;;6.00;97.40;;;;;;5062519;28;20032;-75
2021/12/09 06:33:32;;;;;;;15.38;2.42;;;6.00;97.40;;;;;;5062553;28;20020;-73
2021/12/09 06:35:58;;;;;;;9.88;1.20;;;6.00;97.40;;;;;;5062199;28;20057;-71
2021/12/09 06:38:24;;;;;;;15.32;2.17;;;6.00;97.20;;;;;;5062727;28;20351;-70
2021/12/09 06:40:50;;;;;;;11.18;1.42;;;6.10;97.20;;;;;;5061790;28;20059;-72
2021/12/09 06:43:16;;;;;;;12.60;1.92;;;6.00;97.10;;;;;;5063416;28;20052;-71
2021/12/09 06:45:43;;;;;;;13.38;1.95;;;6.10;97.00;;;;;;5063506;28;20029;-72
2021/12/09 06:48:09;;;;;;;14.82;2.70;;;6.10;97.10;;;;;;5063419;28;20067;-74
2021/12/09 06:50:36;;;;;;;14.43;1.70;;;6.00;97.10;;;;;;5062052;28;20096;-73
2021/12/09 06:53:02;;;;;;;11.95;1.92;;;6.00;97.20;;;;;;5062778;28;20083;-71
2021/12/09 06:55:28;;;;;;;17.35;2.10;;;5.90;97.30;;;;;;5045817;28;20017;-71
2021/12/09 06:57:54;;;;;;;10.32;1.55;;;5.90;97.40;;;;;;5063011;28;20336;-72
2021/12/09 07:00:24;;;;;;;16.73;2.00;;;5.90;97.50;;;;;;5062352;28;20047;-73
2021/12/09 07:02:51;;;;;;;13.57;1.90;;;5.80;97.60;;;;;;5062146;28;20062;-73
2021/12/09 07:05:18;;;;;;;18.52;2.30;;;5.80;97.80;;;;;;5062277;28;20052;-75
2021/12/09 07:07:43;;;;;;;25.42;2.55;;;5.80;97.90;;;;;;5062369;28;20079;-73
2021/12/09 07:10:11;;;;;;;14.40;1.70;;;5.80;98.00;;;;;;5062932;28;20021;-73
2021/12/09 07:12:38;;;;;;;17.92;2.30;;;5.80;98.00;;;;;;5062071;28;20036;-71
2021/12/09 07:15:06;;;;;;;29.67;4.80;;;5.80;98.10;;;;;;5063160;28;20041;-72
2021/12/09 07:17:32;;;;;;;22.13;3.88;;;5.70;98.20;;;;;;5061775;28;20338;-72
2021/12/09 07:19:58;;;;;;;20.58;4.05;;;5.80;98.20;;;;;;5061200;28;20108;-73
2021/12/09 07:22:24;;;;;;;17.15;2.97;;;5.80;98.50;;;;;;5061521;28;20020;-75
2021/12/09 07:24:50;;;;;;;19.75;4.72;;;5.80;98.20;;;;;;5060605;28;20028;-72
2021/12/09 07:27:15;;;;;;;17.67;2.90;;;5.80;98.20;;;;;;5061652;28;20025;-71
2021/12/09 07:29:43;;;;;;;9.98;2.03;;;5.80;98.20;;;;;;5062655;28;20375;-72
2021/12/09 07:32:09;;;;;;;18.40;2.63;;;5.80;98.10;;;;;;5060980;28;20197;-76
2021/12/09 07:34:34;;;;;;;23.27;4.10;;;5.70;98.20;;;;;;5061875;28;20051;-73
2021/12/09 07:37:04;;;;;;;19.30;2.70;;;5.70;98.30;;;;;;5061342;28;20055;-74
2021/12/09 07:39:31;;;;;;;15.52;2.45;;;5.70;98.70;;;;;;5060898;28;20040;-73
2021/12/09 07:41:56;;;;;;;18.83;3.63;;;5.80;98.30;;;;;;5061802;28;20013;-75
2021/12/09 07:44:23;;;;;;;16.35;2.55;;;5.80;98.20;;;;;;5062423;28;20021;-72
2021/12/09 07:46:49;;;;;;;11.40;2.50;;;5.80;98.10;;;;;;5062860;28;20080;-77
2021/12/09 07:49:15;;;;;;;15.23;2.92;;;5.80;98.10;;;;;;5061066;28;20197;-73
2021/12/09 07:51:41;;;;;;;8.52;1.55;;;5.80;98.10;;;;;;5062712;28;20037;-72
2021/12/09 07:54:07;;;;;;;28.60;2.97;;;5.70;98.20;;;;;;5065562;28;20025;-70
2021/12/09 07:56:33;;;;;;;20.08;2.78;;;5.80;98.30;;;;;;5081815;28;20103;-73
2021/12/09 07:58:59;;;;;;;13.35;2.40;;;5.80;98.40;;;;;;5065908;28;20104;-71
2021/12/09 08:01:25;;;;;;;13.25;2.10;;;5.80;98.40;;;;;;5066061;28;20033;-71
2021/12/09 08:03:50;;;;;;;20.35;2.00;;;5.80;98.40;;;;;;5066359;28;20288;-72
2021/12/09 08:06:16;;;;;;;20.88;2.35;;;5.90;98.40;;;;;;5065526;28;20032;-72
2021/12/09 08:08:42;;;;;;;10.70;2.03;;;5.90;98.20;;;;;;5064505;28;20048;-74
2021/12/09 08:11:08;;;;;;;15.40;2.55;;;6.00;98.30;;;;;;5056204;28;20044;-74
2021/12/09 08:13:34;;;;;;;14.02;2.70;;;6.00;98.50;;;;;;5062171;28;20021;-72
2021/12/09 08:16:01;;;;;;;14.70;2.47;;;6.00;98.40;;;;;;5068060;28;20535;-75
2021/12/09 08:18:27;;;;;;;19.02;3.33;;;6.00;98.30;;;;;;5063567;28;20028;-73
2021/12/09 08:21:00;;;;;;;21.05;2.83;;;6.00;98.20;;;;;;5064597;28;20029;-74
2021/12/09 08:23:26;;;;;;;15.65;2.42;;;6.10;98.50;;;;;;5064346;28;20084;-72
2021/12/09 08:25:54;;;;;;;20.15;2.90;;;6.10;98.20;;;;;;5059497;28;20021;-72
2021/12/09 08:28:20;;;;;;;16.55;2.80;;;6.10;98.20;;;;;;5048938;28;20012;-75
2021/12/09 08:30:46;;;;;;;13.75;3.10;;;6.10;98.30;;;;;;5064953;28;20283;-74
2021/12/09 08:33:12;;;;;;;13.75;2.83;;;6.20;98.40;;;;;;5064481;28;20035;-73
2021/12/09 08:35:38;;;;;;;17.77;3.08;;;6.20;98.50;;;;;;5064227;28;20029;-72
2021/12/09 08:38:05;;;;;;;28.75;4.00;;;6.20;98.60;;;;;;5053322;28;20313;-74
2021/12/09 08:40:32;;;;;;;17.77;3.00;;;6.20;98.70;;;;;;5035291;28;20100;-74
2021/12/09 08:42:58;;;;;;;22.35;3.40;;;6.20;98.70;;;;;;5061005;28;20249;-72
2021/12/09 08:45:23;;;;;;;20.77;3.05;;;6.20;98.70;;;;;;5063761;28;20044;-76
2021/12/09 08:47:49;;;;;;;27.40;4.07;;;6.30;98.80;;;;;;5064381;28;20032;-73
2021/12/09 08:50:19;;;;;;;28.50;3.75;;;6.30;98.70;;;;;;5065270;28;20088;-75
2021/12/09 08:52:47;;;;;;;24.25;3.85;;;6.40;98.70;;;;;;5059823;28;20091;-74
2021/12/09 08:55:13;;;;;;;14.25;2.83;;;6.40;98.70;;;;;;5052056;28;20028;-73
2021/12/09 08:57:39;;;;;;;22.77;4.38;;;6.50;98.60;;;;;;5046977;28;20240;-73
2021/12/09 09:00:09;;;;;;;28.85;4.25;;;6.50;98.60;;;;;;5063151;28;20021;-74
2021/12/09 09:02:38;;;;;;;26.42;3.80;;;6.60;98.50;;;;;;5063758;28;20041;-76
2021/12/09 09:05:07;;;;;;;25.85;4.72;;;6.60;98.60;;;;;;5065124;28;20135;-74
2021/12/09 09:07:32;;;;;;;18.52;3.80;;;6.60;98.50;;;;;;5060401;28;20226;-75
2021/12/09 09:09:58;;;;;;;18.45;3.67;;;6.70;98.60;;;;;;5063316;28;20087;-74
2021/12/09 09:12:24;;;;;;;22.65;3.60;;;6.70;98.40;;;;;;5042037;28;20231;-72
2021/12/09 09:14:49;;;;;;;17.40;3.47;;;6.80;98.40;;;;;;5060477;28;20220;-75
2021/12/09 09:17:15;;;;;;;27.98;4.30;;;6.80;98.40;;;;;;5062645;28;20274;-72
2021/12/09 09:19:41;;;;;;;31.13;4.38;;;6.80;98.50;;;;;;5045821;28;20032;-75
2021/12/09 09:22:08;;;;;;;16.73;4.10;;;6.90;98.30;;;;;;5063006;28;20346;-78
2021/12/09 09:24:34;;;;;;;20.55;3.63;;;6.90;98.20;;;;;;5046364;28;20094;-76
2021/12/09 09:27:00;;;;;;;21.85;3.40;;;6.90;98.30;;;;;;5062660;28;20017;-75
2021/12/09 09:29:26;;;;;;;21.30;4.18;;;6.90;98.50;;;;;;5063453;28;20045;-74
2021/12/09 09:31:52;;;;;;;25.80;5.22;;;6.90;98.60;;;;;;5063888;28;20086;-73
2021/12/09 09:34:18;;;;;;;30.15;4.38;;;6.90;98.50;;;;;;5064097;28;20029;-72
2021/12/09 09:36:44;;;;;;;29.20;3.55;;;6.90;98.60;;;;;;5062286;28;20045;-75
2021/12/09 09:39:22;;;;;;;24.83;3.35;;;6.80;98.60;;;;;;5063535;28;20035;-75
2021/12/09 09:42:44;;;;;;;14.15;2.72;;;6.70;98.70;;;;;;5064071;28;20070;-75
2021/12/09 09:44:47;;;;;;;15.48;2.38;;;6.70;98.90;;;;;;5048285;28;20036;-75
2021/12/09 09:47:15;;;;;;;20.95;2.83;;;6.70;98.80;;;;;;5062179;28;20024;-74
2021/12/09 09:49:42;;;;;;;24.83;2.92;;;6.70;98.80;;;;;;5062029;28;20092;-73
2021/12/09 09:52:09;;;;;;;25.55;2.70;;;6.70;98.80;;;;;;5063574;28;20091;-75
2021/12/09 09:54:39;;;;;;;20.70;3.47;;;6.70;98.90;;;;;;5063102;28;20032;-75
2021/12/09 09:57:07;;;;;;;16.02;2.45;;;6.70;98.90;;;;;;5063674;28;20028;-77
2021/12/09 09:59:33;;;;;;;20.92;2.70;;;6.70;98.70;;;;;;5063080;28;20350;-74
2021/12/09 10:01:59;;;;;;;25.55;3.30;;;6.70;98.70;;;;;;5062605;28;20036;-75
2021/12/09 10:04:32;;;;;;;17.08;2.45;;;6.90;98.80;;;;;;5058813;28;20033;-76
2021/12/09 10:06:58;;;;;;;22.08;2.78;;;6.90;98.80;;;;;;5057218;28;20036;-75
2021/12/09 10:09:26;;;;;;;17.88;2.35;;;7.00;98.70;;;;;;5061870;28;20073;-76
2021/12/09 10:11:51;;;;;;;24.35;2.85;;;7.00;98.70;;;;;;5061738;28;20044;-75
2021/12/09 10:14:21;;;;;;;19.77;2.50;;;7.00;98.60;;;;;;5062800;28;20032;-77
2021/12/09 10:17:02;;;;;;;20.58;2.70;;;7.20;98.60;;;;;;5062280;28;20037;-77
2021/12/09 10:19:28;;;;;;;22.60;3.15;;;7.30;98.60;;;;;;5061352;28;20426;-75
2021/12/09 10:22:16;;;;;;;19.17;2.90;;;7.50;98.50;;;;;;5062275;28;20029;-72
2021/12/09 10:24:44;;;;;;;18.58;2.95;;;7.70;97.80;;;;;;5063980;28;20033;-75
2021/12/09 10:27:23;;;;;;;19.02;3.17;;;7.90;97.60;;;;;;5061676;28;20020;-72
2021/12/09 10:29:49;;;;;;;14.70;2.40;;;8.10;97.00;;;;;;5046235;28;20028;-71
2021/12/09 10:32:25;;;;;;;19.50;3.05;;;8.20;96.70;;;;;;5062238;28;20035;-71
2021/12/09 10:34:50;;;;;;;27.08;3.08;;;8.20;96.70;;;;;;5045329;28;20197;-72
2021/12/09 10:37:29;;;;;;;19.17;2.80;;;8.30;96.60;;;;;;5044074;28;20112;-76
2021/12/09 10:39:59;;;;;;;22.77;2.63;;;8.30;96.60;;;;;;5061619;28;20064;-72
2021/12/09 10:42:44;;;;;;;22.02;2.90;;;8.40;96.70;;;;;;5062082;28;20056;-72
2021/12/09 10:45:20;;;;;;;18.40;2.90;;;8.50;96.50;;;;;;5057967;28;20017;-74
2021/12/09 10:47:55;;;;;;;24.70;3.67;;;8.60;96.30;;;;;;5026312;28;20107;-72
2021/12/09 10:50:43;;;;;;;20.42;2.83;;;8.70;96.00;;;;;;5039769;28;20322;-71
2021/12/09 10:53:35;;;;;;;27.77;3.03;;;8.80;96.00;;;;;;5060715;28;20029;-75
2021/12/09 10:56:03;;;;;;;24.45;2.85;;;8.80;95.90;;;;;;5046991;28;20299;-75
2021/12/09 10:58:32;;;;;;;24.05;2.83;;;8.80;96.10;;;;;;5062640;28;20021;-76
2021/12/09 11:01:10;;;;;;;16.52;2.33;;;8.80;96.20;;;;;;5076320;28;20245;-72
2021/12/09 11:03:44;;;;;;;17.55;2.50;;;8.80;96.20;;;;;;5061311;28;20346;-75
2021/12/09 11:06:16;;;;;;;13.45;2.22;;;8.80;95.90;;;;;;5061542;28;20037;-77
2021/12/09 11:08:44;;;;;;;;;;;8.80;95.70;;;;;;5061393;28;20234;-74
2021/12/09 11:11:19;;;;;;;19.17;3.45;;;8.80;95.70;;;;;;5060276;28;19908;-76
2021/12/09 11:13:52;;;;;;;32.15;3.28;;;8.90;95.50;;;;;;5060412;28;20367;-74
2021/12/09 11:16:41;;;;;;;14.32;2.00;;;9.10;94.80;;;;;;5062354;28;20029;-71
2021/12/09 11:19:15;;;;;;;22.48;2.38;;;9.00;94.00;;;;;;5047733;28;20029;-76
2021/12/09 11:21:45;;;;;;;14.75;2.15;;;8.70;94.60;;;;;;5056622;28;20197;-73
2021/12/09 11:24:16;;;;;;;18.33;1.90;;;8.60;94.90;;;;;;5057960;28;20028;-72
2021/12/09 11:26:51;;;;;;;17.10;2.33;;;8.50;95.10;;;;;;5043098;28;20415;-75
2021/12/09 11:29:27;;;;;;;16.27;2.40;;;8.50;95.30;;;;;;5059112;28;20029;-76
2021/12/09 11:32:08;;;;;;;15.57;1.73;;;8.50;95.30;;;;;;5066113;28;20024;-73
2021/12/09 11:34:44;;;;;;;17.92;2.17;;;8.60;95.20;;;;;;5049401;28;20242;-72
2021/12/09 11:37:35;;;;;;;16.50;2.30;;;8.60;95.00;;;;;;5063827;28;20037;-71
2021/12/09 11:40:44;;;;;;;23.55;2.42;;;8.60;94.90;;;;;;5050711;28;20084;-73
2021/12/09 11:43:18;;;;;;;23.10;2.40;;;8.80;94.70;;;;;;5059381;28;20021;-74
2021/12/09 11:45:47;;;;;;;11.88;2.20;;;8.90;94.80;;;;;;5063095;28;20072;-73
2021/12/09 11:48:15;;;;;;;16.02;1.80;;;9.00;94.60;;;;;;5064034;28;20021;-72
2021/12/09 11:50:45;;;;;;;27.98;3.10;;;9.10;94.40;;;;;;5057835;28;20067;-76
2021/12/09 11:53:15;;;;;;;8.82;1.67;;;9.40;94.30;;;;;;5039026;28;20033;-73
2021/12/09 11:55:46;;;;;;;18.70;2.35;;;9.50;93.90;;;;;;5064602;28;20028;-73
2021/12/09 11:58:22;;;;;;;13.60;2.67;;;9.50;93.20;;;;;;5050351;28;20033;-72
2021/12/09 12:07:53;;;;;;;19.38;2.22;;;9.00;94.00;;;;;;5051375;28;20055;-75
2021/12/09 12:15:44;;;;;;;12.10;1.73;;;9.20;93.90;;;;;;5054907;28;20032;-76
2021/12/09 12:18:29;;;;;;;18.95;1.95;;;9.30;93.60;;;;;;5044111;28;20059;-74
2021/12/09 12:24:36;;;;;;;25.63;2.55;;;9.20;93.70;;;;;;5051944;28;20041;-76
2021/12/09 12:27:09;;;;;;;15.32;1.73;;;9.30;93.60;;;;;;5061710;28;20035;-74
2021/12/09 12:30:19;;;;;;;14.45;3.15;;;9.50;93.70;;;;;;5063393;28;20327;-75
2021/12/09 12:33:29;;;;;;;21.05;2.88;;;9.60;93.60;;;;;;5051672;28;20044;-76
2021/12/09 12:35:53;;;;;;;15.45;2.00;;;9.60;93.40;;;;;;5055024;28;20358;-74
2021/12/09 12:38:49;;;;;;;21.48;2.10;;;9.60;93.30;;;;;;5063265;28;20250;-74
2021/12/09 12:41:14;;;;;;;15.57;2.20;;;9.60;93.70;;;;;;5049356;28;20037;-73
2021/12/09 12:43:56;;;;;;;7.03;1.25;;;9.60;93.60;;;;;;5054796;28;20025;-74
2021/12/09 12:46:52;;;;;;;;;;;9.60;93.40;;;;;;5062759;28;20078;-74
2021/12/09 12:49:33;;;;;;;16.00;2.17;;;9.60;93.50;;;;;;5076426;28;19908;-76
2021/12/09 12:52:07;;;;;;;17.15;2.35;;;9.80;93.60;;;;;;5064950;28;20059;-75
2021/12/09 12:57:42;;;;;;;14.15;2.03;;;9.90;93.10;;;;;;5062759;28;20036;-73
2021/12/09 13:00:18;;;;;;;18.52;2.63;;;9.90;93.10;;;;;;5069133;28;20335;-74
2021/12/09 13:05:51;;;;;;;22.02;2.10;;;9.90;92.80;;;;;;5046906;28;20060;-73
2021/12/09 13:08:54;;;;;;;13.63;2.05;;;9.90;93.00;;;;;;5053538;28;20017;-75
2021/12/09 13:11:39;;;;;;;;;;;10.00;92.80;;;;;;5057675;28;20059;-73
2021/12/09 13:14:11;;;;;;;11.80;2.10;;;9.90;93.00;;;;;;5062660;28;19905;-75
2021/12/09 13:17:12;;;;;;;16.85;2.70;;;9.90;93.10;;;;;;5063875;28;20107;-75
2021/12/09 13:19:57;;;;;;;14.73;2.38;;;9.90;92.90;;;;;;5061569;28;20051;-75